createdAt,value
2022-09-15T00:01:05.462Z,37
2022-09-15T00:16:05.300Z,39
2022-09-15T00:31:05.638Z,41
2022-09-15T00:46:05.034Z,40
2022-09-15T01:01:05.596Z,41
2022-09-15T01:16:05.124Z,44
2022-09-15T01:31:05.753Z,56
2022-09-15T01:46:05.114Z,51
2022-09-15T02:01:05.237Z,51
2022-09-15T02:16:05.487Z,49
2022-09-15T02:31:05.658Z,47
2022-09-15T02:46:05.839Z,44
2022-09-15T03:01:05.482Z,45
2022-09-15T03:16:04.952Z,42
2022-09-15T03:31:05.590Z,43
2022-09-15T03:46:05.410Z,44
2022-09-15T04:01:06.028Z,37
2022-09-15T04:16:05.747Z,34
2022-09-15T04:31:05.274Z,33
2022-09-15T04:46:05.805Z,32
2022-09-15T05:01:05.534Z,29
2022-09-15T05:16:05.341Z,29
2022-09-15T05:31:05.520Z,28
2022-09-15T05:46:05.670Z,33
2022-09-15T06:01:05.988Z,14
2022-09-15T06:16:05.602Z,6
2022-09-15T06:31:05.584Z,3
2022-09-15T06:46:04.892Z,21
2022-09-15T07:01:05.942Z,6
2022-09-15T07:16:05.526Z,10
2022-09-15T07:31:05.332Z,19
2022-09-15T07:46:05.182Z,9
2022-09-15T08:01:05.597Z,10
2022-09-15T08:16:05.353Z,8
2022-09-15T08:31:05.718Z,9
2022-09-15T08:46:05.231Z,7
2022-09-15T09:01:05.271Z,8
2022-09-15T09:16:05.368Z,6
2022-09-15T09:31:06.019Z,7
2022-09-15T09:46:05.874Z,13
2022-09-15T10:01:05.480Z,9
2022-09-15T10:16:04.806Z,7
2022-09-15T10:31:04.974Z,8
2022-09-15T10:46:05.649Z,9
2022-09-15T11:01:05.773Z,13
2022-09-15T11:16:04.823Z,12
2022-09-15T11:31:05.291Z,14
2022-09-15T11:46:05.685Z,25
2022-09-15T12:01:05.835Z,16
2022-09-15T12:16:06.003Z,31
2022-09-15T12:31:05.388Z,48
2022-09-15T12:46:05.927Z,48
2022-09-15T13:01:18.468Z,50
2022-09-15T13:16:05.954Z,31
2022-09-15T13:31:05.500Z,38
2022-09-15T13:46:05.421Z,30
2022-09-15T14:01:05.760Z,21
2022-09-15T14:16:12.533Z,18
2022-09-15T14:31:05.298Z,16
2022-09-15T14:46:09.318Z,13
2022-09-15T15:01:05.201Z,21
2022-09-15T15:16:05.801Z,16
2022-09-15T15:31:05.480Z,8
2022-09-15T15:46:05.760Z,21
2022-09-15T16:01:05.595Z,16
2022-09-15T16:16:06.022Z,14
2022-09-15T16:31:05.802Z,15
2022-09-15T16:46:05.125Z,20
2022-09-15T17:01:05.879Z,23
2022-09-15T17:16:05.353Z,18
2022-09-15T17:31:05.542Z,12
2022-09-15T17:46:05.689Z,16
2022-09-15T18:01:05.648Z,16
2022-09-15T18:16:05.418Z,20
2022-09-15T18:31:05.563Z,25
2022-09-15T18:46:05.780Z,35
2022-09-15T19:01:05.641Z,33
2022-09-15T19:16:05.591Z,36
2022-09-15T19:31:05.846Z,37
2022-09-15T19:46:05.178Z,37
2022-09-15T20:01:05.866Z,44
2022-09-15T20:16:05.426Z,40
2022-09-15T20:31:05.907Z,36
2022-09-15T20:46:05.726Z,28
2022-09-15T21:01:05.995Z,31
2022-09-15T21:16:05.413Z,40
2022-09-15T21:31:05.302Z,33
2022-09-15T21:46:05.748Z,32
2022-09-15T22:01:06.048Z,28
2022-09-15T22:16:05.894Z,29
2022-09-15T22:31:05.363Z,31
2022-09-15T22:46:05.789Z,33
2022-09-15T23:01:06.030Z,28
2022-09-15T23:16:06.014Z,25
2022-09-15T23:31:05.097Z,24
2022-09-15T23:46:05.321Z,28
